Time;durP1;ratioP1;P1;durP2;ratioP2;P2;SDS_P1;SDS_P2;PMS_P1;PMS_P2;Temp;Humidity;BMP_temperature;BMP_pressure;BME280_temperature;BME280_humidity;BME280_pressure;Samples;Min_cycle;Max_cycle;Signal;HPM_P1;HPM_P2
2023/01/16 00:01:27;;;;;;;1.38;0.82;;;;;;;5.66;79.13;99389.31;3609470;39;20055;-61
2023/01/16 00:03:53;;;;;;;1.77;0.68;;;;;;;5.42;78.94;99354.41;3612455;39;20055;-61
2023/01/16 00:06:19;;;;;;;3.92;1.10;;;;;;;5.58;79.37;99372.00;3607807;39;20043;-61
2023/01/16 00:08:46;;;;;;;3.70;1.27;;;;;;;5.58;79.40;99365.78;3610988;39;20062;-61
2023/01/16 00:11:12;;;;;;;4.13;1.25;;;;;;;5.54;79.81;99374.94;3611238;39;20046;-61
2023/01/16 00:13:39;;;;;;;2.35;0.98;;;;;;;5.28;79.67;99329.53;3612463;39;20132;-61
2023/01/16 00:16:06;;;;;;;12.77;4.75;;;;;;;5.47;80.04;99362.97;3611926;39;20426;-61
2023/01/16 00:18:32;;;;;;;3.97;1.92;;;;;;;5.45;80.37;99359.56;3610563;39;20059;-61
2023/01/16 00:20:57;;;;;;;3.50;1.20;;;;;;;5.42;80.43;99357.09;3611633;39;20078;-61
2023/01/16 00:23:23;;;;;;;2.92;1.40;;;;;;;5.39;81.01;99349.28;3610962;39;20362;-61
2023/01/16 00:25:48;;;;;;;4.88;1.25;;;;;;;5.38;80.52;99343.09;3611372;39;20055;-61
2023/01/16 00:28:15;;;;;;;6.00;1.98;;;;;;;5.36;80.88;99345.03;3611152;39;20085;-60
2023/01/16 00:30:42;;;;;;;4.20;1.55;;;;;;;5.31;80.74;99337.31;3605889;39;20127;-61
2023/01/16 00:33:08;;;;;;;6.63;1.85;;;;;;;5.06;81.43;99299.88;3610283;39;20090;-60
2023/01/16 00:35:34;;;;;;;6.32;1.92;;;;;;;5.32;81.03;99344.34;3611164;39;20318;-61
2023/01/16 00:38:00;;;;;;;6.13;1.70;;;;;;;5.31;81.14;99337.31;3611721;39;20043;-61
2023/01/16 00:40:26;;;;;;;7.97;2.00;;;;;;;5.31;81.25;99334.66;3607027;39;20077;-61
2023/01/16 00:42:52;;;;;;;4.25;1.58;;;;;;;5.32;81.08;99335.50;3610905;39;20470;-61
2023/01/16 00:45:19;;;;;;;5.78;1.92;;;;;;;5.30;81.35;99324.97;3610733;39;20054;-60
2023/01/16 00:47:44;;;;;;;7.95;2.40;;;;;;;5.32;81.61;99325.69;3611283;39;20276;-61
2023/01/16 00:50:11;;;;;;;7.72;1.67;;;;;;;5.27;81.31;99317.16;3609576;39;20058;-60
2023/01/16 00:52:36;;;;;;;6.47;1.70;;;;;;;5.31;81.03;99310.69;3613594;39;20061;-61
2023/01/16 00:55:02;;;;;;;5.70;1.58;;;;;;;5.30;80.86;99314.31;3612791;39;20046;-61
2023/01/16 00:57:28;;;;;;;5.78;1.77;;;;;;;5.29;81.08;99307.25;3611944;39;20059;-60
2023/01/16 00:59:53;;;;;;;7.25;1.80;;;;;;;5.29;80.83;99306.41;3613315;39;20063;-60
2023/01/16 01:02:19;;;;;;;5.70;1.45;;;;;;;5.26;80.64;99291.47;3601667;39;20059;-60
2023/01/16 01:04:44;;;;;;;1.73;1.30;;;;;;;5.22;80.65;99291.75;3610486;39;20050;-61
2023/01/16 01:07:10;;;;;;;3.58;1.23;;;;;;;5.22;80.83;99289.94;3607080;39;20066;-61
2023/01/16 01:09:36;;;;;;;5.78;1.50;;;;;;;5.21;80.89;99277.59;3610718;39;20090;-61
2023/01/16 01:12:01;;;;;;;3.42;1.40;;;;;;;5.19;80.63;99271.50;3611047;39;20051;-61
2023/01/16 01:14:27;;;;;;;6.47;1.50;;;;;;;5.13;80.96;99274.56;3609814;39;20410;-61
2023/01/16 01:16:53;;;;;;;5.07;1.52;;;;;;;5.15;80.40;99274.47;3611006;39;20057;-61
2023/01/16 01:19:19;;;;;;;3.63;1.48;;;;;;;5.12;80.54;99267.53;3609282;39;20513;-60
2023/01/16 01:21:45;;;;;;;5.95;1.38;;;;;;;5.10;80.62;99259.63;3610236;39;20058;-61
2023/01/16 01:24:11;;;;;;;6.82;1.52;;;;;;;5.09;80.93;99255.25;3610254;39;20070;-61
2023/01/16 01:26:38;;;;;;;4.07;1.13;;;;;;;5.08;80.32;99250.06;3606706;39;20055;-61
2023/01/16 01:29:04;;;;;;;5.88;1.45;;;;;;;5.06;80.36;99243.97;3611050;39;20119;-61
2023/01/16 01:31:29;;;;;;;4.82;1.20;;;;;;;5.04;80.25;99245.84;3607132;39;20169;-60
2023/01/16 01:33:55;;;;;;;4.95;1.33;;;;;;;5.01;80.20;99232.72;3610618;39;20074;-61
2023/01/16 01:36:20;;;;;;;3.92;1.08;;;;;;;4.92;80.10;99236.88;3609731;39;20415;-61
2023/01/16 01:38:49;;;;;;;4.88;1.42;;;;;;;4.91;80.03;99224.50;3609472;39;20059;-61
2023/01/16 01:41:16;;;;;;;4.53;1.55;;;;;;;4.88;80.33;99220.25;3608258;39;20055;-61
2023/01/16 01:43:49;;;;;;;7.32;1.60;;;;;;;4.84;80.27;99208.06;3611278;39;20095;-61
2023/01/16 01:46:34;;;;;;;6.03;1.35;;;;;;;4.81;80.21;99199.41;3610018;39;20051;-61
2023/01/16 01:49:15;;;;;;;5.85;1.35;;;;;;;4.77;80.63;99192.59;3608901;39;20091;-61
2023/01/16 01:51:43;;;;;;;3.47;1.70;;;;;;;4.48;80.83;99144.75;3609582;39;20404;-61
2023/01/16 01:54:17;;;;;;;8.27;1.50;;;;;;;4.74;80.25;99182.13;3608985;39;20529;-60
2023/01/16 01:56:52;;;;;;;7.65;1.20;;;;;;;4.71;80.54;99172.53;3609046;39;20080;-61
2023/01/16 01:59:31;;;;;;;6.35;1.25;;;;;;;4.70;80.14;99172.66;3609252;39;20336;-61
2023/01/16 02:01:57;;;;;;;7.68;1.70;;;;;;;4.71;80.63;99161.91;3608112;39;20127;-60
2023/01/16 02:04:32;;;;;;;6.68;1.73;;;;;;;4.71;80.58;99156.56;3609481;39;20083;-61
2023/01/16 02:07:06;;;;;;;7.60;1.65;;;;;;;4.70;80.45;99149.53;3608887;39;20059;-61
2023/01/16 02:09:32;;;;;;;4.30;1.00;;;;;;;4.71;80.36;99150.41;3609976;39;20055;-60
2023/01/16 02:12:08;;;;;;;7.68;1.40;;;;;;;4.72;80.55;99147.63;3611952;39;20054;-60
2023/01/16 02:14:39;;;;;;;4.00;1.55;;;;;;;4.76;80.82;99137.66;3612352;39;20063;-61
2023/01/16 02:20:08;;;;;;;6.43;1.40;;;;;;;4.15;80.33;99017.41;3610286;39;20058;-60
2023/01/16 02:23:11;;;;;;;7.22;1.58;;;;;;;4.83;79.93;99128.31;3611911;39;20346;-61
2023/01/16 02:26:42;;;;;;;4.72;1.50;;;;;;;4.83;79.66;99118.50;3610522;39;20051;-60
2023/01/16 02:29:17;;;;;;;3.33;1.33;;;;;;;4.83;79.73;99105.19;3611572;39;20058;-60
2023/01/16 02:32:20;;;;;;;4.43;1.50;;;;;;;4.83;79.53;99096.38;3610238;39;20053;-61
2023/01/16 02:35:15;;;;;;;3.47;1.20;;;;;;;4.81;79.75;99088.47;3612127;39;20089;-60
2023/01/16 02:37:48;;;;;;;2.90;1.20;;;;;;;4.82;79.71;99076.00;3612836;39;20147;-60
2023/01/16 02:40:24;;;;;;;4.88;1.60;;;;;;;4.80;79.25;99067.28;3612411;39;20287;-59
2023/01/16 02:43:10;;;;;;;4.35;1.45;;;;;;;4.79;79.56;99047.81;3609895;39;20054;-61
2023/01/16 02:46:10;;;;;;;2.75;1.33;;;;;;;4.75;79.84;99061.41;3611530;39;20063;-61
2023/01/16 02:49:10;;;;;;;5.05;1.77;;;;;;;4.76;79.76;99031.19;3611716;39;20047;-62
2023/01/16 02:51:57;;;;;;;9.48;2.13;;;;;;;4.75;79.65;99024.13;3610788;39;20042;-63
2023/01/16 02:54:44;;;;;;;7.22;1.77;;;;;;;4.75;80.11;99024.97;3610352;39;20051;-63
2023/01/16 02:57:17;;;;;;;4.40;1.30;;;;;;;4.76;79.71;99012.56;3608764;39;20124;-62
2023/01/16 02:59:43;;;;;;;5.63;1.83;;;;;;;4.76;79.78;98999.25;3607824;39;20119;-62
2023/01/16 03:02:09;;;;;;;6.18;1.10;;;;;;;4.75;79.63;99003.69;3610477;39;20047;-61
2023/01/16 03:04:44;;;;;;;8.00;1.70;;;;;;;4.75;79.86;98992.19;3610731;39;20117;-63
2023/01/16 03:07:40;;;;;;;6.68;1.60;;;;;;;4.75;79.65;98977.06;3608412;39;20058;-62
2023/01/16 03:10:50;;;;;;;4.88;1.23;;;;;;;4.77;79.64;98975.19;3610332;39;20059;-62
2023/01/16 03:13:35;;;;;;;9.50;3.75;;;;;;;4.65;79.26;98946.72;3581618;39;20066;-63
2023/01/16 03:16:30;;;;;;;5.50;1.55;;;;;;;4.78;79.62;98957.38;3609868;39;20054;-62
2023/01/16 03:19:01;;;;;;;4.78;1.42;;;;;;;4.78;79.27;98944.09;3610999;39;20047;-63
2023/01/16 03:21:47;;;;;;;6.90;1.30;;;;;;;4.77;79.58;98948.56;3608817;39;20143;-62
2023/01/16 03:24:55;;;;;;;5.55;1.35;;;;;;;4.08;79.29;98816.72;3612295;39;20107;-63
2023/01/16 03:28:07;;;;;;;3.40;1.00;;;;;;;4.79;79.41;98922.69;3608354;39;20054;-62
2023/01/16 03:30:56;;;;;;;3.88;1.20;;;;;;;4.80;79.80;98912.91;3608432;39;20092;-62
2023/01/16 03:33:43;;;;;;;3.28;1.33;;;;;;;4.76;79.36;98904.28;3608658;39;20099;-62
2023/01/16 03:36:39;;;;;;;4.57;1.60;;;;;;;4.81;79.40;98895.97;3610152;39;20301;-62
2023/01/16 03:39:10;;;;;;;7.43;2.13;;;;;;;4.83;79.28;98894.06;3605201;39;20051;-62
2023/01/16 03:41:43;;;;;;;7.25;1.35;;;;;;;4.82;79.34;98882.56;3606948;39;20374;-63
2023/01/16 03:44:25;;;;;;;8.50;1.60;;;;;;;4.82;79.00;98873.69;3608382;39;20374;-63
2023/01/16 03:46:51;;;;;;;4.32;1.27;;;;;;;4.80;79.58;98867.66;3606616;39;20061;-63
2023/01/16 03:49:27;;;;;;;6.57;1.40;;;;;;;4.83;79.81;98865.63;3608451;39;20122;-63
2023/01/16 03:52:00;;;;;;;3.67;1.20;;;;;;;4.86;79.69;98856.56;3611387;39;20383;-63
2023/01/16 03:54:40;;;;;;;6.03;1.35;;;;;;;4.85;79.35;98839.75;3608284;39;20140;-63
2023/01/16 03:57:20;;;;;;;3.85;1.42;;;;;;;4.86;79.40;98819.31;3605540;39;20054;-63
2023/01/16 03:59:49;;;;;;;5.00;1.50;;;;;;;4.87;79.41;98813.00;3609499;39;20432;-64
2023/01/16 04:02:35;;;;;;;5.88;1.83;;;;;;;4.90;79.70;98812.78;3608759;39;20408;-63
2023/01/16 04:05:36;;;;;;;5.45;2.30;;;;;;;4.91;79.65;98800.34;3607662;39;20119;-64
2023/01/16 04:08:16;;;;;;;6.75;2.33;;;;;;;4.94;79.69;98786.81;3609423;39;20054;-63
2023/01/16 04:10:48;;;;;;;5.28;1.90;;;;;;;4.95;79.74;98785.84;3609576;39;20091;-63
2023/01/16 04:13:23;;;;;;;5.28;1.85;;;;;;;4.94;79.42;98776.16;3607648;39;20099;-63
2023/01/16 04:15:56;;;;;;;10.20;2.47;;;;;;;4.98;79.69;98770.53;3609610;39;20387;-63
2023/01/16 04:18:31;;;;;;;7.30;2.38;;;;;;;4.99;79.47;98764.22;3608314;39;20077;-64
2023/01/16 04:20:56;;;;;;;6.13;1.88;;;;;;;5.03;79.46;98762.19;3609376;39;20054;-63
2023/01/16 04:23:22;;;;;;;6.00;1.80;;;;;;;5.00;79.80;98749.09;3608076;39;20055;-64
2023/01/16 04:25:48;;;;;;;7.82;1.38;;;;;;;4.73;79.30;98685.41;3608644;39;20067;-62
2023/01/16 04:28:14;;;;;;;4.93;1.77;;;;;;;5.07;79.50;98731.69;3609895;39;20058;-62
2023/01/16 04:30:40;;;;;;;4.00;1.77;;;;;;;5.12;79.34;98724.25;3607369;39;20058;-64
2023/01/16 04:33:06;;;;;;;4.85;1.70;;;;;;;5.12;79.50;98702.94;3610614;39;20065;-64
2023/01/16 04:35:32;;;;;;;6.68;1.55;;;;;;;5.15;79.20;98708.03;3608743;39;20051;-63
2023/01/16 04:37:59;;;;;;;4.22;1.30;;;;;;;4.98;79.30;98668.47;3609799;39;20090;-64
2023/01/16 04:40:25;;;;;;;4.25;1.42;;;;;;;5.16;78.86;98683.09;3607792;39;20121;-64
2023/01/16 04:42:50;;;;;;;3.85;1.48;;;;;;;4.50;79.16;98559.34;3609936;39;20098;-65
2023/01/16 04:45:16;;;;;;;5.95;1.48;;;;;;;4.96;78.76;98623.34;3609410;39;20081;-64
2023/01/16 04:47:47;;;;;;;6.90;1.95;;;;;;;5.16;78.99;98650.28;3609218;39;20087;-64
2023/01/16 04:50:13;;;;;;;4.25;1.50;;;;;;;5.26;79.00;98651.28;3610142;39;20339;-64
2023/01/16 04:52:40;;;;;;;6.00;1.50;;;;;;;5.29;78.77;98630.59;3608420;39;20055;-63
2023/01/16 04:55:08;;;;;;;4.13;1.35;;;;;;;5.31;78.36;98626.03;3609089;39;20078;-64
2023/01/16 04:57:33;;;;;;;7.35;1.42;;;;;;;5.33;78.99;98615.25;3607803;39;20065;-62
2023/01/16 04:59:59;;;;;;;7.32;1.60;;;;;;;5.34;78.83;98600.97;3608982;39;20166;-64
2023/01/16 05:02:25;;;;;;;3.85;1.10;;;;;;;5.38;78.99;98588.25;3606891;39;20051;-64
2023/01/16 05:04:50;;;;;;;3.95;1.42;;;;;;;5.39;78.92;98581.94;3608005;39;20061;-63
2023/01/16 05:07:16;;;;;;;5.35;1.40;;;;;;;5.39;78.86;98566.81;3607823;39;20050;-63
2023/01/16 05:09:42;;;;;;;8.30;1.40;;;;;;;5.48;78.77;98570.59;3609277;39;20055;-63
2023/01/16 05:12:07;;;;;;;4.25;1.55;;;;;;;5.31;78.27;98530.13;3606456;39;20062;-64
2023/01/16 05:14:33;;;;;;;4.50;1.25;;;;;;;5.53;78.06;98552.44;3608765;39;20090;-64
2023/01/16 05:16:58;;;;;;;3.50;1.30;;;;;;;5.55;78.11;98556.69;3608250;39;20054;-64
2023/01/16 05:19:24;;;;;;;3.75;1.30;;;;;;;5.56;78.00;98538.88;3606833;39;20313;-64
2023/01/16 05:21:49;;;;;;;5.50;1.60;;;;;;;5.63;77.91;98525.94;3606486;39;20068;-64
2023/01/16 05:24:15;;;;;;;5.30;1.50;;;;;;;5.59;77.75;98520.00;3607425;39;20289;-62
2023/01/16 05:26:41;;;;;;;6.72;1.67;;;;;;;5.66;78.17;98515.88;3607507;39;20051;-64
2023/01/16 05:29:06;;;;;;;5.50;1.48;;;;;;;5.67;77.85;98506.06;3607972;39;20061;-63
2023/01/16 05:31:32;;;;;;;7.03;1.35;;;;;;;5.64;78.29;98484.97;3608771;39;20051;-63
2023/01/16 05:33:57;;;;;;;5.40;1.63;;;;;;;5.70;77.51;98476.50;3609435;39;20050;-63
2023/01/16 05:36:23;;;;;;;5.65;1.40;;;;;;;5.71;77.53;98467.50;3606602;39;20063;-66
2023/01/16 05:38:50;;;;;;;6.43;1.58;;;;;;;5.72;77.65;98448.75;3606850;39;20055;-62
2023/01/16 05:41:16;;;;;;;5.57;1.60;;;;;;;5.74;77.59;98445.94;3606891;39;20057;-64
2023/01/16 05:43:42;;;;;;;4.03;1.52;;;;;;;5.75;77.63;98440.50;3610768;39;20055;-62
2023/01/16 05:46:08;;;;;;;2.65;1.23;;;;;;;5.74;77.77;98433.50;3609499;39;20420;-63
2023/01/16 05:48:35;;;;;;;3.92;1.38;;;;;;;5.77;77.62;98427.91;3608658;39;20063;-63
2023/01/16 05:51:03;;;;;;;4.22;1.58;;;;;;;5.82;77.41;98425.72;3608710;39;20104;-63
2023/01/16 05:53:30;;;;;;;3.92;1.13;;;;;;;5.81;77.35;98413.34;3608695;39;20047;-64
2023/01/16 05:55:58;;;;;;;6.10;1.55;;;;;;;5.81;76.93;98408.03;3609677;39;20061;-63
2023/01/16 05:58:23;;;;;;;5.68;1.55;;;;;;;5.82;77.13;98404.38;3608635;39;20059;-63
2023/01/16 06:00:49;;;;;;;6.13;1.27;;;;;;;5.85;76.98;98397.13;3611776;39;20720;-63
2023/01/16 06:03:18;;;;;;;4.88;1.42;;;;;;;5.87;77.10;98395.16;3608194;39;20398;-64
2023/01/16 06:05:44;;;;;;;4.38;1.20;;;;;;;5.88;77.15;98386.19;3607853;39;20079;-63
2023/01/16 06:08:11;;;;;;;5.45;1.73;;;;;;;5.87;76.66;98388.03;3610143;39;20069;-64
2023/01/16 06:10:36;;;;;;;5.43;1.38;;;;;;;5.89;77.24;98382.56;3607977;39;20054;-65
2023/01/16 06:13:03;;;;;;;5.75;1.45;;;;;;;5.82;77.76;98367.06;3608892;39;20079;-63
2023/01/16 06:15:29;;;;;;;6.57;1.50;;;;;;;5.87;77.70;98368.50;3594315;39;20063;-64
2023/01/16 06:17:55;;;;;;;6.13;1.20;;;;;;;5.86;78.58;98356.16;3609303;39;20061;-65
2023/01/16 06:20:21;;;;;;;5.93;1.55;;;;;;;5.80;78.24;98353.03;3607093;39;20396;-68
2023/01/16 06:22:47;;;;;;;3.55;1.17;;;;;;;5.81;78.99;98349.38;3607312;39;20044;-66
2023/01/16 06:25:13;;;;;;;4.10;1.45;;;;;;;5.80;78.71;98353.03;3608996;39;20063;-65
2023/01/16 06:27:39;;;;;;;3.65;1.08;;;;;;;5.76;79.59;98338.22;3608929;39;20055;-64
2023/01/16 06:30:10;;;;;;;3.67;1.15;;;;;;;5.73;79.05;98325.16;3609585;39;20054;-66
2023/01/16 06:32:35;;;;;;;6.20;1.30;;;;;;;5.72;79.70;98318.16;3609141;39;20087;-64
2023/01/16 06:35:01;;;;;;;4.65;1.20;;;;;;;5.71;80.36;98319.13;3610536;39;20050;-65
2023/01/16 06:37:26;;;;;;;4.05;1.05;;;;;;;5.70;80.48;98314.75;3608663;39;20065;-65
2023/01/16 06:39:52;;;;;;;6.50;1.40;;;;;;;5.65;80.74;98306.31;3609078;39;20057;-66
2023/01/16 06:42:19;;;;;;;3.10;1.00;;;;;;;5.64;81.14;98293.09;3607361;39;20148;-64
2023/01/16 06:44:45;;;;;;;4.35;1.77;;;;;;;5.58;81.19;98274.00;3611391;39;20043;-65
2023/01/16 06:47:11;;;;;;;8.10;1.50;;;;;;;5.53;81.78;98248.69;3608124;39;20063;-65
2023/01/16 06:49:36;;;;;;;6.10;1.58;;;;;;;5.51;82.09;98245.28;3608535;39;20051;-64
2023/01/16 06:52:02;;;;;;;5.70;1.90;;;;;;;5.54;82.05;98229.06;3611243;39;20054;-64
2023/01/16 06:54:27;;;;;;;5.45;1.48;;;;;;;5.48;82.47;98227.72;3608601;39;20058;-65
2023/01/16 06:56:53;;;;;;;5.30;1.60;;;;;;;5.54;82.31;98223.72;3606474;39;20063;-64
2023/01/16 06:59:19;;;;;;;6.00;1.27;;;;;;;5.14;81.78;98141.81;3607550;39;20063;-64
2023/01/16 07:01:44;;;;;;;5.68;1.50;;;;;;;5.55;81.89;98201.41;3607389;39;20062;-65
2023/01/16 07:04:10;;;;;;;4.28;1.45;;;;;;;5.57;82.10;98194.16;3607691;39;20061;-64
2023/01/16 07:06:38;;;;;;;4.68;1.30;;;;;;;5.51;82.12;98181.34;3610057;39;20046;-64
2023/01/16 07:09:03;;;;;;;5.57;1.85;;;;;;;4.92;82.13;98083.31;3610253;39;20084;-64
2023/01/16 07:11:29;;;;;;;2.90;1.13;;;;;;;5.52;82.03;98164.41;3608306;39;20047;-63
2023/01/16 07:22:34;;;;;;;5.18;1.50;;;;;;;5.56;82.34;98163.16;3609314;39;20085;-66
2023/01/16 07:25:02;;;;;;;4.10;1.23;;;;;;;5.46;82.33;98124.94;3610664;39;20408;-64
2023/01/16 07:27:29;;;;;;;3.67;1.10;;;;;;;5.51;82.22;98110.25;3609042;39;20061;-63
2023/01/16 07:29:55;;;;;;;3.42;1.13;;;;;;;5.51;82.35;98106.75;3609311;39;20174;-64
2023/01/16 07:32:21;;;;;;;4.45;1.38;;;;;;;5.52;82.24;98105.78;3607824;39;20123;-64
2023/01/16 07:34:47;;;;;;;4.10;1.05;;;;;;;5.55;81.93;98103.69;3609606;39;20066;-64
2023/01/16 07:37:12;;;;;;;3.40;1.10;;;;;;;5.43;82.03;98062.13;3607173;39;20055;-62
2023/01/16 07:39:38;;;;;;;2.47;1.00;;;;;;;5.61;81.69;98094.31;3610297;39;20066;-64
2023/01/16 07:42:06;;;;;;;3.50;1.23;;;;;;;5.63;81.68;98073.72;3609654;39;20353;-64
2023/01/16 07:44:33;;;;;;;3.55;0.95;;;;;;;5.63;81.74;98073.72;3610210;39;20329;-65
2023/01/16 07:46:58;;;;;;;2.38;0.95;;;;;;;5.64;82.04;98069.25;3610221;39;20050;-65
2023/01/16 07:49:24;;;;;;;2.38;1.05;;;;;;;5.63;81.85;98063.06;3607811;39;20882;-65
2023/01/16 07:51:50;;;;;;;2.67;1.25;;;;;;;5.65;81.82;98061.13;3610862;39;20069;-65
2023/01/16 07:54:15;;;;;;;5.28;1.20;;;;;;;5.67;81.73;98064.47;3608020;39;20059;-65
2023/01/16 07:56:41;;;;;;;5.05;1.20;;;;;;;5.69;81.77;98049.22;3612184;39;20043;-65
2023/01/16 07:59:07;;;;;;;3.25;0.80;;;;;;;5.67;81.89;98021.84;3609066;39;20043;-65
2023/01/16 08:01:33;;;;;;;3.92;1.10;;;;;;;5.69;82.37;98033.22;3609435;39;20163;-65
2023/01/16 08:03:59;;;;;;;4.18;1.45;;;;;;;5.72;81.79;98019.63;3604921;39;20060;-64
2023/01/16 08:06:26;;;;;;;6.68;1.17;;;;;;;5.72;82.04;98024.97;3605522;39;20073;-64
2023/01/16 08:08:51;;;;;;;1.80;0.63;;;;;;;5.73;81.66;98009.81;3605517;39;20386;-64
2023/01/16 08:11:35;;;;;;;5.82;1.25;;;;;;;5.68;81.76;98002.22;3609304;39;20058;-64
2023/01/16 08:14:02;;;;;;;4.82;1.08;;;;;;;5.68;81.92;97996.91;3609186;39;20112;-65
2023/01/16 08:16:28;;;;;;;5.35;1.42;;;;;;;5.69;82.43;97982.59;3607502;39;20120;-65
2023/01/16 08:18:54;;;;;;;3.22;1.10;;;;;;;5.65;81.97;97975.00;3608577;39;20095;-66
2023/01/16 08:21:20;;;;;;;3.38;1.20;;;;;;;5.74;82.24;97983.03;3607077;39;20078;-66
2023/01/16 08:23:46;;;;;;;2.30;0.95;;;;;;;5.75;81.88;97971.41;3610969;39;20051;-64
2023/01/16 08:26:12;;;;;;;3.50;1.10;;;;;;;5.74;82.72;97958.19;3609951;39;20055;-66
2023/01/16 08:28:39;;;;;;;4.93;1.30;;;;;;;5.75;82.32;97950.06;3607144;39;20332;-66
2023/01/16 08:31:11;;;;;;;2.47;1.08;;;;;;;5.75;82.66;97959.91;3607756;39;20313;-66
2023/01/16 08:33:41;;;;;;;2.28;1.20;;;;;;;5.80;82.71;97952.31;3609027;39;20112;-66
2023/01/16 08:36:10;;;;;;;5.45;1.67;;;;;;;5.79;82.31;97940.81;3608366;39;20059;-63
2023/01/16 08:38:36;;;;;;;5.45;0.85;;;;;;;5.78;82.38;97925.81;3607448;39;20051;-66
2023/01/16 08:41:02;;;;;;;2.75;0.93;;;;;;;5.83;82.47;97930.72;3609443;39;20295;-66
2023/01/16 08:51:59;;;;;;;3.45;1.30;;;;;;;5.89;82.13;97924.84;3606748;39;20387;-66
2023/01/16 08:54:25;;;;;;;3.92;1.30;;;;;;;5.92;82.35;97926.41;3608447;39;20051;-66
2023/01/16 08:56:51;;;;;;;1.80;1.15;;;;;;;5.93;82.10;97918.31;3606072;39;20251;-66
2023/01/16 08:59:16;;;;;;;3.35;1.33;;;;;;;5.95;82.70;97918.16;3605355;39;20054;-66
2023/01/16 09:01:42;;;;;;;1.20;0.93;;;;;;;5.94;82.61;97905.81;3605853;39;20116;-66
2023/01/16 09:04:09;;;;;;;2.28;0.77;;;;;;;5.74;82.47;97876.44;3598790;39;20370;-66
2023/01/16 09:06:37;;;;;;;2.65;0.80;;;;;;;5.92;81.75;97908.56;3607777;39;20065;-67
2023/01/16 09:09:06;;;;;;;4.15;0.80;;;;;;;5.91;81.73;97924.72;3607942;39;20120;-66
2023/01/16 09:14:18;;;;;;;1.73;0.70;;;;;;;5.91;82.33;97896.25;3607290;39;20054;-64
2023/01/16 09:16:43;;;;;;;1.15;0.60;;;;;;;5.88;81.39;97899.19;3610199;39;20051;-63
2023/01/16 09:19:09;;;;;;;0.95;0.65;;;;;;;5.92;81.70;97894.41;3608867;39;20127;-65
2023/01/16 09:21:35;;;;;;;0.40;0.40;;;;;;;5.93;81.38;97904.13;3607740;39;20117;-63
2023/01/16 09:24:02;;;;;;;1.67;0.52;;;;;;;5.95;81.30;97894.16;3607831;39;20038;-63
2023/01/16 09:26:27;;;;;;;0.80;0.60;;;;;;;5.99;81.78;97882.22;3606474;39;20120;-64
2023/01/16 09:28:53;;;;;;;0.32;0.30;;;;;;;5.99;81.43;97895.56;3607086;39;20335;-64
2023/01/16 09:31:18;;;;;;;2.30;0.50;;;;;;;5.97;81.28;97889.56;3607087;39;20063;-63
2023/01/16 09:33:47;;;;;;;0.77;0.50;;;;;;;5.81;81.59;97858.91;3607344;39;20073;-63
2023/01/16 09:36:12;;;;;;;0.80;0.50;;;;;;;6.03;81.18;97892.50;3605140;39;20039;-63
2023/01/16 09:38:38;;;;;;;0.77;0.50;;;;;;;6.04;81.42;97880.00;3608339;39;20153;-63
2023/01/16 09:41:04;;;;;;;1.58;0.40;;;;;;;5.97;81.10;97863.72;3607022;39;20062;-63
2023/01/16 09:43:42;;;;;;;1.13;0.60;;;;;;;6.07;80.96;97874.41;3602946;39;20061;-63
2023/01/16 09:46:25;;;;;;;0.88;0.30;;;;;;;6.10;81.20;97873.28;3604523;39;20309;-63
2023/01/16 09:49:00;;;;;;;0.57;0.57;;;;;;;6.13;80.34;97873.84;3608874;39;20053;-63
2023/01/16 09:51:40;;;;;;;0.32;0.32;;;;;;;6.16;80.38;97868.22;3606727;39;20059;-63
2023/01/16 10:00:05;;;;;;;0.50;0.50;;;;;;;6.25;80.14;97856.72;3607251;39;20448;-63
2023/01/16 10:02:35;;;;;;;1.75;0.50;;;;;;;6.15;79.10;97829.22;3606007;39;20382;-63
2023/01/16 10:05:04;;;;;;;1.23;0.65;;;;;;;6.32;79.29;97854.34;3606770;39;20059;-63
2023/01/16 10:07:47;;;;;;;1.05;0.57;;;;;;;6.38;79.75;97844.94;3607977;39;20421;-64
2023/01/16 10:10:47;;;;;;;1.85;0.75;;;;;;;6.43;79.60;97842.66;3608110;39;20123;-63
2023/01/16 10:13:31;;;;;;;2.90;0.60;;;;;;;6.50;78.85;97827.75;3602925;39;20048;-64
2023/01/16 10:16:32;;;;;;;1.55;0.57;;;;;;;6.60;78.38;97822.44;3607671;39;20371;-64
2023/01/16 10:19:22;;;;;;;0.85;0.50;;;;;;;6.73;79.06;97823.78;3607270;39;20044;-63
2023/01/16 10:21:50;;;;;;;0.55;0.50;;;;;;;6.81;78.95;97814.19;3604049;39;20422;-63
2023/01/16 10:24:35;;;;;;;0.40;0.40;;;;;;;6.88;77.24;97807.28;3608955;39;20092;-63
2023/01/16 10:27:27;;;;;;;0.63;0.57;;;;;;;6.92;77.12;97808.69;3608415;39;20051;-63
2023/01/16 10:30:14;;;;;;;1.05;0.40;;;;;;;6.95;76.74;97800.41;3609782;39;20051;-63
2023/01/16 10:33:16;;;;;;;2.13;0.65;;;;;;;6.97;76.32;97783.22;3607185;39;20389;-63
2023/01/16 10:35:51;;;;;;;0.65;0.40;;;;;;;7.03;76.12;97781.78;3606121;39;20061;-63
2023/01/16 10:38:48;;;;;;;0.40;0.40;;;;;;;7.09;75.22;97786.53;3606130;39;20047;-63
2023/01/16 10:50:22;;;;;;;0.52;0.30;;;;;;;7.17;74.78;97765.28;3610519;39;20057;-63
2023/01/16 10:52:48;;;;;;;0.40;0.40;;;;;;;7.15;74.67;97759.25;3610154;39;20059;-63
2023/01/16 10:55:17;;;;;;;1.00;0.57;;;;;;;7.10;74.82;97740.13;3609000;39;20383;-63
2023/01/16 10:58:00;;;;;;;0.40;0.40;;;;;;;7.16;74.37;97749.41;3607821;39;20043;-63
2023/01/16 11:00:35;;;;;;;0.75;0.50;;;;;;;6.97;74.32;97710.28;3607280;39;20062;-63
2023/01/16 11:03:14;;;;;;;0.85;0.38;;;;;;;7.11;74.27;97735.66;3609212;39;20382;-63
2023/01/16 11:05:40;;;;;;;2.45;0.50;;;;;;;7.11;74.15;97725.81;3610372;39;20066;-62
2023/01/16 11:08:13;;;;;;;0.50;0.50;;;;;;;7.13;73.87;97722.97;3608886;39;20101;-63
2023/01/16 11:10:44;;;;;;;0.95;0.20;;;;;;;7.14;73.48;97722.84;3608629;39;20063;-62
2023/01/16 11:19:17;;;;;;;0.55;0.40;;;;;;;7.21;73.57;97694.53;3609984;39;20117;-62
2023/01/16 11:22:08;;;;;;;0.40;0.40;;;;;;;7.27;73.16;97687.75;3605680;39;20095;-63
2023/01/16 11:24:39;;;;;;;0.70;0.70;;;;;;;7.31;73.11;97682.94;3607568;39;20298;-62
2023/01/16 11:27:17;;;;;;;1.30;0.57;;;;;;;7.32;72.02;97676.59;3609431;39;20043;-63
2023/01/16 11:29:43;;;;;;;0.50;0.50;;;;;;;7.31;72.72;97666.91;3599519;39;20070;-63
2023/01/16 11:32:14;;;;;;;1.90;0.73;;;;;;;7.35;72.63;97673.63;3608516;39;20067;-63
2023/01/16 11:34:47;;;;;;;1.95;0.45;;;;;;;7.36;72.85;97669.97;3609035;39;20051;-63
2023/01/16 11:37:16;;;;;;;1.90;0.80;;;;;;;7.38;72.46;97657.28;3610054;39;20155;-62
2023/01/16 11:39:51;;;;;;;0.70;0.70;;;;;;;7.43;73.38;97649.66;3608300;39;20057;-63
2023/01/16 11:48:25;;;;;;;1.33;1.05;;;;;;;7.38;72.08;97630.56;3609304;39;20051;-62
2023/01/16 11:50:55;;;;;;;2.05;0.90;;;;;;;7.38;71.99;97633.25;3608873;39;20091;-62
2023/01/16 11:53:21;;;;;;;2.92;1.02;;;;;;;7.40;72.60;97636.63;3607034;39;20055;-62
2023/01/16 11:56:22;;;;;;;0.90;0.70;;;;;;;7.39;72.71;97626.88;3607852;39;20050;-62
2023/01/16 11:59:16;;;;;;;0.93;0.50;;;;;;;7.33;72.38;97611.50;3607117;39;20047;-63
2023/01/16 12:02:16;;;;;;;1.10;0.80;;;;;;;7.34;73.97;97607.84;3605820;39;20050;-65
2023/01/16 12:08:21;;;;;;;0.85;0.70;;;;;;;7.30;74.85;97595.78;3609227;39;20054;-66
2023/01/16 12:11:08;;;;;;;0.95;0.45;;;;;;;7.31;74.40;97590.28;3609335;39;20109;-63
2023/01/16 12:14:18;;;;;;;1.00;0.60;;;;;;;7.36;75.12;97579.13;3608699;39;20050;-63
2023/01/16 12:17:13;;;;;;;0.65;0.40;;;;;;;7.38;75.30;97571.78;3606833;39;20058;-63
2023/01/16 12:20:19;;;;;;;1.10;0.70;;;;;;;7.41;76.23;97574.97;3607061;39;20441;-63
2023/01/16 12:23:25;;;;;;;0.70;0.68;;;;;;;7.47;75.22;97564.69;3605031;39;20086;-63
2023/01/16 12:26:02;;;;;;;0.38;0.38;;;;;;;7.48;74.93;97561.84;3607872;39;20091;-63
2023/01/16 12:29:05;;;;;;;0.80;0.40;;;;;;;7.26;74.39;97516.91;3606598;39;20127;-63
2023/01/16 12:31:51;;;;;;;0.77;0.45;;;;;;;7.57;74.42;97546.69;3606688;39;20045;-63
2023/01/16 12:34:43;;;;;;;0.60;0.60;;;;;;;7.56;73.00;97543.19;3606628;39;20098;-63
2023/01/16 12:37:47;;;;;;;0.73;0.60;;;;;;;7.61;72.75;97545.38;3608156;39;20119;-63
2023/01/16 12:40:42;;;;;;;0.60;0.55;;;;;;;7.63;72.37;97533.53;3606490;39;20116;-63
2023/01/16 12:43:33;;;;;;;0.77;0.30;;;;;;;7.67;71.72;97534.94;3607527;39;20082;-63
2023/01/16 12:46:06;;;;;;;0.47;0.30;;;;;;;7.69;71.50;97526.75;3606659;39;20044;-63
2023/01/16 12:49:05;;;;;;;0.50;0.50;;;;;;;7.73;71.71;97517.41;3598191;39;20092;-63
2023/01/16 12:52:24;;;;;;;0.52;0.40;;;;;;;7.82;72.20;97515.63;3604890;39;20051;-63
2023/01/16 12:55:29;;;;;;;0.30;0.30;;;;;;;7.83;71.59;97510.13;3610237;39;20063;-63
2023/01/16 12:58:19;;;;;;;0.50;0.38;;;;;;;7.82;71.51;97503.06;3608482;39;20052;-63
2023/01/16 13:00:59;;;;;;;3.10;0.70;;;;;;;7.84;71.89;97486.91;3607793;39;20150;-63
2023/01/16 13:03:39;;;;;;;0.75;0.43;;;;;;;7.82;71.78;97483.53;3606678;39;20135;-63